AL63 weather

Walker Regional Medical Center Heliport
Jasper, Alabama, United States

Public forecast

Using degrees Fahrenheit for public forecast. Weather courtesy of forecast.io.

Closest aviation weather report (METAR) to Walker Regional Medical Center Heliport

Closest report is Walker County Airport-Bevill Field, 5.3 nm (9.9 km) NW. Retrieved 2019/10/14 05:35 UTC (0 seconds ago):

KJFX 140535Z AUTO 10SM CLR 10/10 A3010 RMK AO2

Closest aviation forecast (TAF) to Walker Regional Medical Center Heliport

Closest forecast is Birmingham-Shuttlesworth International Airport, 29.3 nm (54.3 km) SE. Retrieved 2019-10-14 00:22 UTC (5 hours ago):

TAF KBHM 132320Z 1400/1424 28006KT 6SM -RA BR OVC080 FM140400 VRB03KT P6SM OVC050 FM141500 VRB05KT P6SM OVC100